sensor_id;sensor_type;location;lat;lon;timestamp;P1;durP1;ratioP1;P2;durP2;ratioP2
51987;SDS011;38003;52.012;4.346;2023-04-24T00:01:38;177.73;;;170.23;;
51987;SDS011;38003;52.012;4.346;2023-04-24T00:04:06;203.50;;;194.93;;
51987;SDS011;38003;52.012;4.346;2023-04-24T00:06:38;217.20;;;208.67;;
51987;SDS011;38003;52.012;4.346;2023-04-24T00:09:09;181.43;;;174.13;;
51987;SDS011;38003;52.012;4.346;2023-04-24T00:11:37;226.83;;;217.83;;
51987;SDS011;38003;52.012;4.346;2023-04-24T00:14:05;231.60;;;222.13;;
51987;SDS011;38003;52.012;4.346;2023-04-24T00:16:33;170.97;;;163.97;;
51987;SDS011;38003;52.012;4.346;2023-04-24T00:19:02;184.23;;;176.83;;
51987;SDS011;38003;52.012;4.346;2023-04-24T00:21:31;192.63;;;184.97;;
51987;SDS011;38003;52.012;4.346;2023-04-24T00:24:01;198.20;;;190.13;;
51987;SDS011;38003;52.012;4.346;2023-04-24T00:26:29;164.63;;;157.73;;
51987;SDS011;38003;52.012;4.346;2023-04-24T00:28:57;218.63;;;209.93;;
51987;SDS011;38003;52.012;4.346;2023-04-24T00:31:26;207.30;;;198.93;;
51987;SDS011;38003;52.012;4.346;2023-04-24T00:33:54;179.90;;;172.67;;
51987;SDS011;38003;52.012;4.346;2023-04-24T00:36:22;199.83;;;192.17;;
51987;SDS011;38003;52.012;4.346;2023-04-24T00:38:51;189.90;;;182.20;;
51987;SDS011;38003;52.012;4.346;2023-04-24T00:41:20;217.10;;;208.23;;
51987;SDS011;38003;52.012;4.346;2023-04-24T00:43:49;236.43;;;227.13;;
51987;SDS011;38003;52.012;4.346;2023-04-24T00:46:17;243.93;;;234.50;;
51987;SDS011;38003;52.012;4.346;2023-04-24T00:48:45;284.37;;;273.50;;
51987;SDS011;38003;52.012;4.346;2023-04-24T00:51:14;305.27;;;293.63;;
51987;SDS011;38003;52.012;4.346;2023-04-24T00:53:42;307.93;;;296.50;;
51987;SDS011;38003;52.012;4.346;2023-04-24T00:56:10;246.30;;;237.10;;
51987;SDS011;38003;52.012;4.346;2023-04-24T00:58:40;174.50;;;167.67;;
51987;SDS011;38003;52.012;4.346;2023-04-24T01:01:08;264.70;;;254.70;;
51987;SDS011;38003;52.012;4.346;2023-04-24T01:03:38;224.90;;;216.40;;
51987;SDS011;38003;52.012;4.346;2023-04-24T01:06:06;153.90;;;147.60;;
51987;SDS011;38003;52.012;4.346;2023-04-24T01:08:35;163.50;;;156.70;;
51987;SDS011;38003;52.012;4.346;2023-04-24T01:11:04;140.33;;;134.67;;
51987;SDS011;38003;52.012;4.346;2023-04-24T01:13:32;197.87;;;190.33;;
51987;SDS011;38003;52.012;4.346;2023-04-24T01:16:02;187.23;;;179.97;;
51987;SDS011;38003;52.012;4.346;2023-04-24T01:18:31;148.07;;;142.10;;
51987;SDS011;38003;52.012;4.346;2023-04-24T01:20:59;223.97;;;215.57;;
51987;SDS011;38003;52.012;4.346;2023-04-24T01:23:32;166.43;;;159.63;;
51987;SDS011;38003;52.012;4.346;2023-04-24T01:26:01;157.83;;;151.23;;
51987;SDS011;38003;52.012;4.346;2023-04-24T01:28:29;138.60;;;132.90;;
51987;SDS011;38003;52.012;4.346;2023-04-24T01:30:57;145.13;;;139.33;;
51987;SDS011;38003;52.012;4.346;2023-04-24T01:33:26;161.43;;;154.83;;
51987;SDS011;38003;52.012;4.346;2023-04-24T01:35:54;193.80;;;186.10;;
51987;SDS011;38003;52.012;4.346;2023-04-24T01:38:22;131.20;;;125.73;;
51987;SDS011;38003;52.012;4.346;2023-04-24T01:40:52;199.53;;;191.77;;
51987;SDS011;38003;52.012;4.346;2023-04-24T01:43:20;207.73;;;199.70;;
51987;SDS011;38003;52.012;4.346;2023-04-24T01:45:49;225.40;;;216.73;;
51987;SDS011;38003;52.012;4.346;2023-04-24T01:48:17;178.63;;;171.50;;
51987;SDS011;38003;52.012;4.346;2023-04-24T01:50:45;143.47;;;137.63;;
51987;SDS011;38003;52.012;4.346;2023-04-24T01:53:14;112.17;;;107.53;;
51987;SDS011;38003;52.012;4.346;2023-04-24T01:55:42;152.67;;;146.53;;
51987;SDS011;38003;52.012;4.346;2023-04-24T01:58:11;155.73;;;149.30;;
51987;SDS011;38003;52.012;4.346;2023-04-24T02:00:40;122.57;;;117.50;;
51987;SDS011;38003;52.012;4.346;2023-04-24T02:03:08;144.00;;;138.20;;
51987;SDS011;38003;52.012;4.346;2023-04-24T02:05:37;172.50;;;165.43;;
51987;SDS011;38003;52.012;4.346;2023-04-24T02:08:05;197.87;;;190.07;;
51987;SDS011;38003;52.012;4.346;2023-04-24T02:10:33;146.93;;;140.97;;
51987;SDS011;38003;52.012;4.346;2023-04-24T02:13:02;154.77;;;148.43;;
51987;SDS011;38003;52.012;4.346;2023-04-24T02:15:32;177.23;;;170.13;;
51987;SDS011;38003;52.012;4.346;2023-04-24T02:18:02;178.47;;;171.40;;
51987;SDS011;38003;52.012;4.346;2023-04-24T02:20:30;149.73;;;143.70;;
51987;SDS011;38003;52.012;4.346;2023-04-24T02:23:00;120.03;;;115.10;;
51987;SDS011;38003;52.012;4.346;2023-04-24T02:25:28;121.43;;;116.47;;
51987;SDS011;38003;52.012;4.346;2023-04-24T02:27:56;97.53;;;93.47;;
51987;SDS011;38003;52.012;4.346;2023-04-24T02:30:24;139.07;;;133.37;;
51987;SDS011;38003;52.012;4.346;2023-04-24T02:32:54;112.97;;;108.33;;
51987;SDS011;38003;52.012;4.346;2023-04-24T02:35:22;113.57;;;108.80;;
51987;SDS011;38003;52.012;4.346;2023-04-24T02:37:50;116.80;;;111.97;;
51987;SDS011;38003;52.012;4.346;2023-04-24T02:40:19;107.17;;;102.67;;
51987;SDS011;38003;52.012;4.346;2023-04-24T02:42:47;109.87;;;105.33;;
51987;SDS011;38003;52.012;4.346;2023-04-24T02:45:15;118.10;;;112.80;;
51987;SDS011;38003;52.012;4.346;2023-04-24T02:47:43;104.37;;;99.97;;
51987;SDS011;38003;52.012;4.346;2023-04-24T02:50:13;116.70;;;111.83;;
51987;SDS011;38003;52.012;4.346;2023-04-24T02:52:41;133.90;;;128.23;;
51987;SDS011;38003;52.012;4.346;2023-04-24T02:55:10;141.30;;;135.50;;
51987;SDS011;38003;52.012;4.346;2023-04-24T02:57:38;112.10;;;107.27;;
51987;SDS011;38003;52.012;4.346;2023-04-24T03:00:06;183.87;;;176.47;;
51987;SDS011;38003;52.012;4.346;2023-04-24T03:02:35;146.67;;;140.43;;
51987;SDS011;38003;52.012;4.346;2023-04-24T03:05:04;153.83;;;147.50;;
51987;SDS011;38003;52.012;4.346;2023-04-24T03:07:35;146.37;;;140.37;;
51987;SDS011;38003;52.012;4.346;2023-04-24T03:10:03;118.40;;;113.50;;
51987;SDS011;38003;52.012;4.346;2023-04-24T03:12:32;119.27;;;114.23;;
51987;SDS011;38003;52.012;4.346;2023-04-24T03:15:00;169.70;;;162.80;;
51987;SDS011;38003;52.012;4.346;2023-04-24T03:17:28;179.03;;;171.87;;
51987;SDS011;38003;52.012;4.346;2023-04-24T03:19:56;155.23;;;148.70;;
51987;SDS011;38003;52.012;4.346;2023-04-24T03:22:24;169.03;;;162.27;;
51987;SDS011;38003;52.012;4.346;2023-04-24T03:24:54;194.63;;;186.90;;
51987;SDS011;38003;52.012;4.346;2023-04-24T03:27:22;128.13;;;122.63;;
51987;SDS011;38003;52.012;4.346;2023-04-24T03:29:51;140.30;;;134.67;;
51987;SDS011;38003;52.012;4.346;2023-04-24T03:32:21;111.23;;;106.63;;
51987;SDS011;38003;52.012;4.346;2023-04-24T03:34:50;98.57;;;94.10;;
51987;SDS011;38003;52.012;4.346;2023-04-24T03:37:18;117.20;;;112.17;;
51987;SDS011;38003;52.012;4.346;2023-04-24T03:39:46;98.63;;;94.27;;
51987;SDS011;38003;52.012;4.346;2023-04-24T03:42:16;76.80;;;72.97;;
51987;SDS011;38003;52.012;4.346;2023-04-24T03:44:44;87.63;;;83.77;;
51987;SDS011;38003;52.012;4.346;2023-04-24T03:47:12;79.03;;;75.70;;
51987;SDS011;38003;52.012;4.346;2023-04-24T03:49:40;74.43;;;71.03;;
51987;SDS011;38003;52.012;4.346;2023-04-24T03:52:09;114.57;;;109.57;;
51987;SDS011;38003;52.012;4.346;2023-04-24T03:54:37;126.47;;;120.83;;
51987;SDS011;38003;52.012;4.346;2023-04-24T03:57:05;129.27;;;123.83;;
51987;SDS011;38003;52.012;4.346;2023-04-24T03:59:35;160.93;;;154.23;;
51987;SDS011;38003;52.012;4.346;2023-04-24T04:02:03;174.63;;;167.47;;
51987;SDS011;38003;52.012;4.346;2023-04-24T04:04:31;118.53;;;113.50;;
51987;SDS011;38003;52.012;4.346;2023-04-24T04:07:00;62.93;;;60.00;;
51987;SDS011;38003;52.012;4.346;2023-04-24T04:09:29;64.53;;;61.03;;
51987;SDS011;38003;52.012;4.346;2023-04-24T04:11:57;110.13;;;105.13;;
51987;SDS011;38003;52.012;4.346;2023-04-24T04:14:26;89.93;;;85.63;;
51987;SDS011;38003;52.012;4.346;2023-04-24T04:16:56;114.80;;;109.50;;
51987;SDS011;38003;52.012;4.346;2023-04-24T04:19:24;167.10;;;159.87;;
51987;SDS011;38003;52.012;4.346;2023-04-24T04:21:52;150.77;;;144.03;;
51987;SDS011;38003;52.012;4.346;2023-04-24T04:24:22;149.87;;;142.70;;
51987;SDS011;38003;52.012;4.346;2023-04-24T04:26:50;134.23;;;127.70;;
51987;SDS011;38003;52.012;4.346;2023-04-24T04:29:22;224.97;;;215.83;;
51987;SDS011;38003;52.012;4.346;2023-04-24T04:31:50;221.57;;;212.57;;
51987;SDS011;38003;52.012;4.346;2023-04-24T04:34:20;217.33;;;208.37;;
51987;SDS011;38003;52.012;4.346;2023-04-24T04:36:48;172.87;;;165.03;;
51987;SDS011;38003;52.012;4.346;2023-04-24T04:39:17;169.87;;;162.10;;
51987;SDS011;38003;52.012;4.346;2023-04-24T04:41:45;169.80;;;161.83;;
51987;SDS011;38003;52.012;4.346;2023-04-24T04:44:15;186.53;;;177.83;;
51987;SDS011;38003;52.012;4.346;2023-04-24T04:46:43;176.27;;;167.43;;
51987;SDS011;38003;52.012;4.346;2023-04-24T04:49:11;167.30;;;158.97;;
51987;SDS011;38003;52.012;4.346;2023-04-24T04:51:44;173.43;;;165.03;;
51987;SDS011;38003;52.012;4.346;2023-04-24T04:54:13;177.43;;;168.93;;
51987;SDS011;38003;52.012;4.346;2023-04-24T04:56:41;202.43;;;193.23;;
51987;SDS011;38003;52.012;4.346;2023-04-24T04:59:10;172.10;;;163.70;;
51987;SDS011;38003;52.012;4.346;2023-04-24T05:01:38;164.57;;;156.57;;
51987;SDS011;38003;52.012;4.346;2023-04-24T05:04:06;168.27;;;160.00;;
51987;SDS011;38003;52.012;4.346;2023-04-24T05:06:35;165.47;;;157.67;;
51987;SDS011;38003;52.012;4.346;2023-04-24T05:09:04;180.23;;;170.67;;
51987;SDS011;38003;52.012;4.346;2023-04-24T05:11:33;158.67;;;150.93;;
51987;SDS011;38003;52.012;4.346;2023-04-24T05:14:01;150.83;;;143.60;;
51987;SDS011;38003;52.012;4.346;2023-04-24T05:16:30;129.47;;;122.97;;
51987;SDS011;38003;52.012;4.346;2023-04-24T05:18:58;153.43;;;145.30;;
51987;SDS011;38003;52.012;4.346;2023-04-24T05:21:26;133.23;;;126.37;;
51987;SDS011;38003;52.012;4.346;2023-04-24T05:23:54;187.57;;;178.57;;
51987;SDS011;38003;52.012;4.346;2023-04-24T05:26:24;167.03;;;159.27;;
51987;SDS011;38003;52.012;4.346;2023-04-24T05:28:52;185.13;;;175.83;;
51987;SDS011;38003;52.012;4.346;2023-04-24T05:31:20;165.57;;;157.17;;
51987;SDS011;38003;52.012;4.346;2023-04-24T05:33:48;170.80;;;162.50;;
51987;SDS011;38003;52.012;4.346;2023-04-24T05:36:16;224.03;;;213.50;;
51987;SDS011;38003;52.012;4.346;2023-04-24T05:38:45;210.30;;;200.33;;
51987;SDS011;38003;52.012;4.346;2023-04-24T05:41:13;210.67;;;201.07;;
51987;SDS011;38003;52.012;4.346;2023-04-24T05:43:42;223.13;;;212.93;;
51987;SDS011;38003;52.012;4.346;2023-04-24T05:46:11;226.37;;;216.37;;
51987;SDS011;38003;52.012;4.346;2023-04-24T05:48:39;264.97;;;253.40;;
51987;SDS011;38003;52.012;4.346;2023-04-24T05:51:08;192.37;;;183.17;;
51987;SDS011;38003;52.012;4.346;2023-04-24T05:53:37;151.30;;;143.60;;
51987;SDS011;38003;52.012;4.346;2023-04-24T05:56:05;178.50;;;169.23;;
51987;SDS011;38003;52.012;4.346;2023-04-24T05:58:33;149.60;;;141.17;;
51987;SDS011;38003;52.012;4.346;2023-04-24T06:01:03;132.07;;;124.60;;
51987;SDS011;38003;52.012;4.346;2023-04-24T06:03:31;156.00;;;147.80;;
51987;SDS011;38003;52.012;4.346;2023-04-24T06:06:00;169.40;;;160.43;;
51987;SDS011;38003;52.012;4.346;2023-04-24T06:08:28;162.60;;;154.13;;
51987;SDS011;38003;52.012;4.346;2023-04-24T06:10:56;148.40;;;140.63;;
51987;SDS011;38003;52.012;4.346;2023-04-24T06:13:24;150.63;;;142.93;;
51987;SDS011;38003;52.012;4.346;2023-04-24T06:15:53;162.43;;;154.47;;
51987;SDS011;38003;52.012;4.346;2023-04-24T06:18:22;135.77;;;128.97;;
51987;SDS011;38003;52.012;4.346;2023-04-24T06:20:51;170.67;;;162.27;;
51987;SDS011;38003;52.012;4.346;2023-04-24T06:23:19;124.73;;;118.10;;
51987;SDS011;38003;52.012;4.346;2023-04-24T06:25:47;134.20;;;127.30;;
51987;SDS011;38003;52.012;4.346;2023-04-24T06:28:16;270.37;;;258.70;;
51987;SDS011;38003;52.012;4.346;2023-04-24T06:30:44;233.97;;;223.43;;
51987;SDS011;38003;52.012;4.346;2023-04-24T06:33:12;229.20;;;218.07;;
51987;SDS011;38003;52.012;4.346;2023-04-24T06:35:48;227.40;;;216.57;;
51987;SDS011;38003;52.012;4.346;2023-04-24T06:38:17;211.07;;;201.10;;
51987;SDS011;38003;52.012;4.346;2023-04-24T06:40:45;237.70;;;226.97;;
51987;SDS011;38003;52.012;4.346;2023-04-24T06:43:13;220.97;;;210.60;;
51987;SDS011;38003;52.012;4.346;2023-04-24T06:45:42;243.70;;;232.70;;
51987;SDS011;38003;52.012;4.346;2023-04-24T06:48:10;252.90;;;241.10;;
51987;SDS011;38003;52.012;4.346;2023-04-24T06:50:38;182.37;;;174.00;;
51987;SDS011;38003;52.012;4.346;2023-04-24T06:53:08;189.63;;;180.23;;
51987;SDS011;38003;52.012;4.346;2023-04-24T06:55:38;161.60;;;153.70;;
51987;SDS011;38003;52.012;4.346;2023-04-24T06:58:07;157.83;;;149.70;;
51987;SDS011;38003;52.012;4.346;2023-04-24T07:00:35;129.93;;;123.13;;
51987;SDS011;38003;52.012;4.346;2023-04-24T07:03:03;113.77;;;107.83;;
51987;SDS011;38003;52.012;4.346;2023-04-24T07:05:32;106.73;;;100.97;;
51987;SDS011;38003;52.012;4.346;2023-04-24T07:08:01;87.57;;;82.03;;
51987;SDS011;38003;52.012;4.346;2023-04-24T07:10:31;87.67;;;81.77;;
51987;SDS011;38003;52.012;4.346;2023-04-24T07:13:00;34.43;;;31.83;;
51987;SDS011;38003;52.012;4.346;2023-04-24T07:15:28;33.60;;;30.80;;
51987;SDS011;38003;52.012;4.346;2023-04-24T07:17:56;19.53;;;17.53;;
51987;SDS011;38003;52.012;4.346;2023-04-24T07:20:25;23.50;;;21.77;;
51987;SDS011;38003;52.012;4.346;2023-04-24T07:22:53;20.03;;;18.00;;
51987;SDS011;38003;52.012;4.346;2023-04-24T07:25:21;22.93;;;20.63;;
51987;SDS011;38003;52.012;4.346;2023-04-24T07:27:51;20.93;;;18.67;;
51987;SDS011;38003;52.012;4.346;2023-04-24T07:30:19;10.50;;;8.87;;
51987;SDS011;38003;52.012;4.346;2023-04-24T07:32:47;14.87;;;10.83;;
51987;SDS011;38003;52.012;4.346;2023-04-24T07:35:15;10.47;;;7.10;;
51987;SDS011;38003;52.012;4.346;2023-04-24T07:37:44;14.30;;;5.50;;
51987;SDS011;38003;52.012;4.346;2023-04-24T07:40:12;14.73;;;6.07;;
51987;SDS011;38003;52.012;4.346;2023-04-24T07:42:41;19.10;;;4.70;;
51987;SDS011;38003;52.012;4.346;2023-04-24T07:45:11;13.07;;;5.17;;
51987;SDS011;38003;52.012;4.346;2023-04-24T07:47:39;10.40;;;3.93;;
51987;SDS011;38003;52.012;4.346;2023-04-24T07:50:10;8.17;;;3.73;;
51987;SDS011;38003;52.012;4.346;2023-04-24T07:52:38;10.33;;;3.90;;
51987;SDS011;38003;52.012;4.346;2023-04-24T07:55:06;9.83;;;3.07;;
51987;SDS011;38003;52.012;4.346;2023-04-24T07:57:35;10.60;;;3.37;;
51987;SDS011;38003;52.012;4.346;2023-04-24T08:00:03;8.50;;;2.70;;
51987;SDS011;38003;52.012;4.346;2023-04-24T08:02:33;10.47;;;3.03;;
51987;SDS011;38003;52.012;4.346;2023-04-24T08:05:01;7.43;;;2.20;;
51987;SDS011;38003;52.012;4.346;2023-04-24T08:07:30;6.67;;;2.50;;
51987;SDS011;38003;52.012;4.346;2023-04-24T08:09:59;15.33;;;3.57;;
51987;SDS011;38003;52.012;4.346;2023-04-24T08:12:27;9.40;;;2.60;;
51987;SDS011;38003;52.012;4.346;2023-04-24T08:14:56;10.97;;;2.53;;
51987;SDS011;38003;52.012;4.346;2023-04-24T08:17:24;11.83;;;2.80;;
51987;SDS011;38003;52.012;4.346;2023-04-24T08:19:54;8.30;;;2.10;;
51987;SDS011;38003;52.012;4.346;2023-04-24T08:22:27;10.17;;;2.20;;
51987;SDS011;38003;52.012;4.346;2023-04-24T08:24:56;7.97;;;2.23;;
51987;SDS011;38003;52.012;4.346;2023-04-24T08:27:24;6.63;;;2.30;;
51987;SDS011;38003;52.012;4.346;2023-04-24T08:29:53;6.53;;;2.10;;
51987;SDS011;38003;52.012;4.346;2023-04-24T08:32:22;6.10;;;2.10;;
51987;SDS011;38003;52.012;4.346;2023-04-24T08:34:50;5.93;;;2.00;;
51987;SDS011;38003;52.012;4.346;2023-04-24T08:37:20;5.83;;;1.60;;
51987;SDS011;38003;52.012;4.346;2023-04-24T08:39:48;6.73;;;2.03;;
51987;SDS011;38003;52.012;4.346;2023-04-24T08:42:17;5.30;;;1.23;;
51987;SDS011;38003;52.012;4.346;2023-04-24T08:44:45;5.10;;;1.50;;
51987;SDS011;38003;52.012;4.346;2023-04-24T08:47:14;3.87;;;1.20;;
51987;SDS011;38003;52.012;4.346;2023-04-24T08:49:43;5.33;;;1.47;;
51987;SDS011;38003;52.012;4.346;2023-04-24T08:52:11;7.97;;;1.67;;
51987;SDS011;38003;52.012;4.346;2023-04-24T08:54:41;12.53;;;1.50;;
51987;SDS011;38003;52.012;4.346;2023-04-24T08:57:11;5.93;;;1.83;;
51987;SDS011;38003;52.012;4.346;2023-04-24T08:59:42;6.63;;;1.17;;
51987;SDS011;38003;52.012;4.346;2023-04-24T09:02:11;3.37;;;1.10;;
51987;SDS011;38003;52.012;4.346;2023-04-24T09:04:40;4.77;;;1.17;;
51987;SDS011;38003;52.012;4.346;2023-04-24T09:07:08;4.80;;;1.60;;
51987;SDS011;38003;52.012;4.346;2023-04-24T09:09:37;6.30;;;1.37;;
51987;SDS011;38003;52.012;4.346;2023-04-24T09:12:08;4.90;;;1.70;;
51987;SDS011;38003;52.012;4.346;2023-04-24T09:14:36;7.27;;;1.70;;
51987;SDS011;38003;52.012;4.346;2023-04-24T09:17:08;5.87;;;1.83;;
51987;SDS011;38003;52.012;4.346;2023-04-24T09:19:37;4.33;;;1.00;;
51987;SDS011;38003;52.012;4.346;2023-04-24T09:22:06;6.70;;;1.23;;
51987;SDS011;38003;52.012;4.346;2023-04-24T09:24:34;2.40;;;1.00;;
51987;SDS011;38003;52.012;4.346;2023-04-24T09:27:02;5.87;;;1.30;;
51987;SDS011;38003;52.012;4.346;2023-04-24T09:29:33;6.87;;;1.47;;
51987;SDS011;38003;52.012;4.346;2023-04-24T09:32:10;8.30;;;1.37;;
51987;SDS011;38003;52.012;4.346;2023-04-24T09:34:46;4.27;;;1.00;;
51987;SDS011;38003;52.012;4.346;2023-04-24T09:37:25;2.87;;;1.00;;
51987;SDS011;38003;52.012;4.346;2023-04-24T09:40:06;7.40;;;1.33;;
51987;SDS011;38003;52.012;4.346;2023-04-24T09:42:35;5.37;;;1.20;;
51987;SDS011;38003;52.012;4.346;2023-04-24T09:45:05;7.53;;;1.40;;
51987;SDS011;38003;52.012;4.346;2023-04-24T09:47:41;4.43;;;1.10;;
51987;SDS011;38003;52.012;4.346;2023-04-24T09:50:10;7.73;;;1.33;;
51987;SDS011;38003;52.012;4.346;2023-04-24T09:52:40;3.10;;;1.13;;
51987;SDS011;38003;52.012;4.346;2023-04-24T09:55:19;3.17;;;1.10;;
51987;SDS011;38003;52.012;4.346;2023-04-24T09:57:48;7.57;;;1.03;;
51987;SDS011;38003;52.012;4.346;2023-04-24T10:00:20;4.33;;;0.90;;
51987;SDS011;38003;52.012;4.346;2023-04-24T10:02:49;4.17;;;0.73;;
51987;SDS011;38003;52.012;4.346;2023-04-24T10:05:19;2.37;;;1.10;;
51987;SDS011;38003;52.012;4.346;2023-04-24T10:07:50;6.70;;;1.30;;
51987;SDS011;38003;52.012;4.346;2023-04-24T10:10:19;8.87;;;1.67;;
51987;SDS011;38003;52.012;4.346;2023-04-24T10:12:47;6.80;;;1.63;;
51987;SDS011;38003;52.012;4.346;2023-04-24T10:15:16;6.77;;;1.57;;
51987;SDS011;38003;52.012;4.346;2023-04-24T10:17:48;26.47;;;1.37;;
51987;SDS011;38003;52.012;4.346;2023-04-24T10:20:19;5.77;;;1.20;;
51987;SDS011;38003;52.012;4.346;2023-04-24T10:22:48;6.47;;;1.30;;
51987;SDS011;38003;52.012;4.346;2023-04-24T10:25:18;7.50;;;1.50;;
51987;SDS011;38003;52.012;4.346;2023-04-24T10:27:47;10.97;;;1.70;;
51987;SDS011;38003;52.012;4.346;2023-04-24T10:30:16;9.30;;;1.80;;
51987;SDS011;38003;52.012;4.346;2023-04-24T10:32:45;4.67;;;1.17;;
51987;SDS011;38003;52.012;4.346;2023-04-24T10:35:15;7.70;;;1.47;;
51987;SDS011;38003;52.012;4.346;2023-04-24T10:37:44;4.73;;;1.87;;
51987;SDS011;38003;52.012;4.346;2023-04-24T10:40:16;4.90;;;1.67;;
51987;SDS011;38003;52.012;4.346;2023-04-24T10:42:47;6.37;;;1.63;;
51987;SDS011;38003;52.012;4.346;2023-04-24T10:45:15;9.23;;;1.77;;
51987;SDS011;38003;52.012;4.346;2023-04-24T10:47:50;4.70;;;1.40;;
51987;SDS011;38003;52.012;4.346;2023-04-24T10:50:20;5.97;;;1.43;;
51987;SDS011;38003;52.012;4.346;2023-04-24T10:52:49;3.43;;;0.87;;
51987;SDS011;38003;52.012;4.346;2023-04-24T10:58:02;3.60;;;0.90;;
51987;SDS011;38003;52.012;4.346;2023-04-24T11:00:30;3.27;;;1.00;;
51987;SDS011;38003;52.012;4.346;2023-04-24T11:02:59;3.40;;;0.70;;
51987;SDS011;38003;52.012;4.346;2023-04-24T11:08:28;3.00;;;0.97;;
51987;SDS011;38003;52.012;4.346;2023-04-24T11:10:57;3.20;;;0.90;;
51987;SDS011;38003;52.012;4.346;2023-04-24T11:13:27;4.00;;;0.93;;
51987;SDS011;38003;52.012;4.346;2023-04-24T11:16:14;3.77;;;1.20;;
51987;SDS011;38003;52.012;4.346;2023-04-24T11:18:43;5.33;;;0.97;;
51987;SDS011;38003;52.012;4.346;2023-04-24T11:21:16;4.50;;;1.13;;
51987;SDS011;38003;52.012;4.346;2023-04-24T11:23:46;5.13;;;1.17;;
51987;SDS011;38003;52.012;4.346;2023-04-24T11:26:17;8.50;;;1.30;;
51987;SDS011;38003;52.012;4.346;2023-04-24T11:28:46;6.47;;;1.50;;
51987;SDS011;38003;52.012;4.346;2023-04-24T11:31:34;8.13;;;1.30;;
51987;SDS011;38003;52.012;4.346;2023-04-24T11:34:10;9.63;;;1.53;;
51987;SDS011;38003;52.012;4.346;2023-04-24T11:36:39;7.43;;;1.30;;
51987;SDS011;38003;52.012;4.346;2023-04-24T11:39:09;5.73;;;1.60;;
51987;SDS011;38003;52.012;4.346;2023-04-24T11:41:37;7.20;;;1.57;;
51987;SDS011;38003;52.012;4.346;2023-04-24T11:44:06;4.93;;;1.20;;
51987;SDS011;38003;52.012;4.346;2023-04-24T11:46:34;6.20;;;1.50;;
51987;SDS011;38003;52.012;4.346;2023-04-24T11:49:04;6.10;;;1.73;;
51987;SDS011;38003;52.012;4.346;2023-04-24T11:51:33;8.27;;;1.87;;
51987;SDS011;38003;52.012;4.346;2023-04-24T11:54:19;6.37;;;2.00;;
51987;SDS011;38003;52.012;4.346;2023-04-24T11:56:48;5.80;;;1.57;;
51987;SDS011;38003;52.012;4.346;2023-04-24T11:59:17;8.83;;;2.03;;
51987;SDS011;38003;52.012;4.346;2023-04-24T12:01:45;5.87;;;1.60;;
51987;SDS011;38003;52.012;4.346;2023-04-24T12:04:14;6.53;;;2.40;;
51987;SDS011;38003;52.012;4.346;2023-04-24T12:09:27;10.97;;;2.60;;
51987;SDS011;38003;52.012;4.346;2023-04-24T12:11:56;8.40;;;2.43;;
51987;SDS011;38003;52.012;4.346;2023-04-24T12:14:24;10.27;;;2.60;;
51987;SDS011;38003;52.012;4.346;2023-04-24T12:16:52;6.30;;;1.77;;
51987;SDS011;38003;52.012;4.346;2023-04-24T12:19:21;7.27;;;2.43;;
51987;SDS011;38003;52.012;4.346;2023-04-24T12:21:59;11.07;;;2.40;;
51987;SDS011;38003;52.012;4.346;2023-04-24T12:24:29;10.40;;;2.70;;
51987;SDS011;38003;52.012;4.346;2023-04-24T12:26:58;9.33;;;2.40;;
51987;SDS011;38003;52.012;4.346;2023-04-24T12:29:27;7.07;;;2.00;;
51987;SDS011;38003;52.012;4.346;2023-04-24T12:31:55;10.33;;;2.77;;
51987;SDS011;38003;52.012;4.346;2023-04-24T12:34:25;9.17;;;2.10;;
51987;SDS011;38003;52.012;4.346;2023-04-24T12:36:53;9.90;;;2.87;;
51987;SDS011;38003;52.012;4.346;2023-04-24T12:39:21;9.20;;;2.40;;
51987;SDS011;38003;52.012;4.346;2023-04-24T12:41:57;14.83;;;3.17;;
51987;SDS011;38003;52.012;4.346;2023-04-24T12:44:29;8.60;;;3.10;;
51987;SDS011;38003;52.012;4.346;2023-04-24T12:46:57;12.80;;;3.47;;
51987;SDS011;38003;52.012;4.346;2023-04-24T12:49:26;9.90;;;2.57;;
51987;SDS011;38003;52.012;4.346;2023-04-24T12:51:54;10.77;;;2.60;;
51987;SDS011;38003;52.012;4.346;2023-04-24T12:54:22;9.03;;;2.60;;
51987;SDS011;38003;52.012;4.346;2023-04-24T12:56:50;12.93;;;2.80;;
51987;SDS011;38003;52.012;4.346;2023-04-24T12:59:20;13.33;;;2.70;;
51987;SDS011;38003;52.012;4.346;2023-04-24T13:01:48;11.67;;;2.77;;
51987;SDS011;38003;52.012;4.346;2023-04-24T13:04:17;12.00;;;2.93;;
51987;SDS011;38003;52.012;4.346;2023-04-24T13:06:45;11.00;;;2.87;;
51987;SDS011;38003;52.012;4.346;2023-04-24T13:09:13;6.83;;;2.97;;
51987;SDS011;38003;52.012;4.346;2023-04-24T13:11:41;13.87;;;3.17;;
51987;SDS011;38003;52.012;4.346;2023-04-24T13:14:10;6.83;;;2.73;;
51987;SDS011;38003;52.012;4.346;2023-04-24T13:16:39;8.53;;;3.07;;
51987;SDS011;38003;52.012;4.346;2023-04-24T13:19:07;8.80;;;2.83;;
51987;SDS011;38003;52.012;4.346;2023-04-24T13:21:36;9.67;;;3.20;;
51987;SDS011;38003;52.012;4.346;2023-04-24T13:24:04;10.47;;;3.10;;
51987;SDS011;38003;52.012;4.346;2023-04-24T13:26:34;4.07;;;2.00;;
51987;SDS011;38003;52.012;4.346;2023-04-24T13:29:03;9.60;;;2.53;;
51987;SDS011;38003;52.012;4.346;2023-04-24T13:31:31;9.63;;;2.57;;
51987;SDS011;38003;52.012;4.346;2023-04-24T13:34:00;6.40;;;2.10;;
51987;SDS011;38003;52.012;4.346;2023-04-24T13:36:29;7.47;;;2.80;;
51987;SDS011;38003;52.012;4.346;2023-04-24T13:38:58;7.53;;;2.53;;
51987;SDS011;38003;52.012;4.346;2023-04-24T13:41:26;10.93;;;2.40;;
51987;SDS011;38003;52.012;4.346;2023-04-24T13:43:54;9.20;;;2.87;;
51987;SDS011;38003;52.012;4.346;2023-04-24T13:46:22;6.57;;;2.33;;
51987;SDS011;38003;52.012;4.346;2023-04-24T13:48:51;9.07;;;2.33;;
51987;SDS011;38003;52.012;4.346;2023-04-24T13:51:20;11.10;;;3.57;;
51987;SDS011;38003;52.012;4.346;2023-04-24T13:53:49;12.53;;;3.30;;
51987;SDS011;38003;52.012;4.346;2023-04-24T13:56:17;9.00;;;2.97;;
51987;SDS011;38003;52.012;4.346;2023-04-24T13:58:45;11.57;;;3.47;;
51987;SDS011;38003;52.012;4.346;2023-04-24T14:01:13;10.33;;;3.30;;
51987;SDS011;38003;52.012;4.346;2023-04-24T14:03:42;12.23;;;3.57;;
51987;SDS011;38003;52.012;4.346;2023-04-24T14:06:11;9.87;;;3.07;;
51987;SDS011;38003;52.012;4.346;2023-04-24T14:08:40;12.30;;;3.70;;
51987;SDS011;38003;52.012;4.346;2023-04-24T14:11:09;12.53;;;3.87;;
51987;SDS011;38003;52.012;4.346;2023-04-24T14:13:37;9.60;;;2.87;;
51987;SDS011;38003;52.012;4.346;2023-04-24T14:16:05;10.93;;;3.83;;
51987;SDS011;38003;52.012;4.346;2023-04-24T14:18:34;10.87;;;3.40;;
51987;SDS011;38003;52.012;4.346;2023-04-24T14:21:03;13.43;;;3.53;;
51987;SDS011;38003;52.012;4.346;2023-04-24T14:23:32;11.63;;;3.83;;
51987;SDS011;38003;52.012;4.346;2023-04-24T14:26:01;12.63;;;3.90;;
51987;SDS011;38003;52.012;4.346;2023-04-24T14:28:30;10.50;;;3.23;;
51987;SDS011;38003;52.012;4.346;2023-04-24T14:30:58;11.63;;;3.40;;
51987;SDS011;38003;52.012;4.346;2023-04-24T14:33:27;16.27;;;3.87;;
51987;SDS011;38003;52.012;4.346;2023-04-24T14:35:55;10.83;;;3.00;;
51987;SDS011;38003;52.012;4.346;2023-04-24T14:38:23;9.30;;;2.87;;
51987;SDS011;38003;52.012;4.346;2023-04-24T14:40:51;6.90;;;2.43;;